Flight Track Log - Related Links

Times and Time Zones

All times are in EDT time to prevent confusion due to time zone crossing. See the GUG716 flight status page for this flight to view local times or setup timezone preferences in your user account.

Time Position Orientation Groundspeed Altitude Reporting Facility
EDT Latitude Longitude Course Direction KTS MPH feet Rate Location/Type
Mon 02:55:00 PM 10.5076 -84.6739 318° Northwest  Level Estimated
Mon 02:56:00 PM 10.5542 -84.7162 318° Northwest  Level Estimated
Mon 02:57:00 PM 10.6009 -84.7586 318° Northwest  Level Estimated
Mon 02:58:00 PM 10.6475 -84.8010 318° Northwest  Level Estimated
Mon 02:59:00 PM 10.6942 -84.8434 318° Northwest  Level Estimated
Mon 03:00:00 PM 10.7408 -84.8858 318° Northwest  Level Estimated
Mon 03:01:00 PM 10.7875 -84.9282 318° Northwest  Level Estimated
Mon 03:02:00 PM 10.8341 -84.9706 318° Northwest  Level Estimated
Mon 03:03:00 PM 10.8807 -85.0131 318° Northwest  Level Estimated
Mon 03:04:00 PM 10.9274 -85.0556 318° Northwest  Level Estimated
Mon 03:05:00 PM 10.9740 -85.0980 318° Northwest  Level Estimated
Mon 03:06:00 PM 11.0206 -85.1405 318° Northwest  Level Estimated
Mon 03:07:00 PM 11.0672 -85.1830 318° Northwest  Level Estimated
Mon 03:08:00 PM 11.1138 -85.2255 318° Northwest  Level Estimated
Mon 03:09:00 PM 11.1604 -85.2681 318° Northwest  Level Estimated
Mon 03:10:00 PM 11.2070 -85.3106 318° Northwest  Level Estimated
Mon 03:11:00 PM 11.2535 -85.3531 318° Northwest  Level Estimated
Mon 03:12:00 PM 11.3001 -85.3957 318° Northwest  Level Estimated
Mon 03:13:00 PM 11.3467 -85.4383 318° Northwest  Level Estimated
Mon 03:14:00 PM 11.3933 -85.4809 318° Northwest  Level Estimated
Mon 03:15:00 PM 11.4398 -85.5235 318° Northwest  Level Estimated
Mon 03:16:00 PM 11.4864 -85.5661 318° Northwest  Level Estimated
Mon 03:17:00 PM 11.5329 -85.6088 318° Northwest  Level Estimated
Mon 03:18:00 PM 11.5794 -85.6514 318° Northwest  Level Estimated
Mon 03:19:00 PM 11.6260 -85.6941 318° Northwest  Level Estimated
Mon 03:20:00 PM 11.6725 -85.7368 318° Northwest  Level Estimated
Mon 03:21:00 PM 11.7190 -85.7795 318° Northwest  Level Estimated
Mon 03:22:00 PM 11.7655 -85.8222 318° Northwest  Level Estimated
Mon 03:23:00 PM 11.8120 -85.8649 318° Northwest  Level Estimated
Mon 03:24:00 PM 11.8585 -85.9076 318° Northwest  Level Estimated
Mon 03:25:00 PM 11.9050 -85.9504 318° Northwest  Level Estimated
Mon 03:26:00 PM 11.9515 -85.9932 318° Northwest  Level Estimated
Mon 03:27:00 PM 11.9980 -86.0359 318° Northwest  Level Estimated
Mon 03:28:00 PM 12.0444 -86.0787 318° Northwest  Level Estimated
Mon 03:29:00 PM 12.0909 -86.1216 318° Northwest  Level Estimated
Mon 03:30:00 PM 12.1374 -86.1644 318° Northwest  Level Estimated
Mon 03:31:00 PM 12.1415 -86.1682 318° Northwest  Level Estimated
Mon 03:32:00 PM 12.1415 -86.1682 26° Northeast  Level Estimated
Mon 03:33:00 PM 12.1415 -86.1682 26° Northeast  Level Estimated
Mon 03:34:00 PM 12.1415 -86.1682 26° Northeast  Level Estimated
Mon 03:35:00 PM 12.1415 -86.1682 26° Northeast  Level Estimated
Mon 03:36:00 PM 12.1415 -86.1682 26° Northeast  Level Estimated
Mon 03:37:00 PM 12.1415 -86.1682 26° Northeast  Level Estimated
Mon 03:38:00 PM 12.1415 -86.1682 26° Northeast  Level Estimated
Mon 03:39:00 PM 12.1415 -86.1682 26° Northeast  Level Estimated
Mon 03:40:00 PM 12.1415 -86.1682 26° Northeast  Level Estimated
Mon 03:41:00 PM 12.1415 -86.1682 26° Northeast  Level Estimated
Mon 03:42:00 PM 12.1415 -86.1682 26° Northeast  Level Estimated
Mon 03:43:00 PM 12.1415 -86.1682 26° Northeast  Level Estimated
Mon 03:44:00 PM 12.1415 -86.1682 26° Northeast  Level Estimated
Mon 03:45:00 PM 12.1415 -86.1682 26° Northeast  Level Estimated
Mon 03:46:00 PM 12.1415 -86.1682 26° Northeast  Level Estimated

Login

Don't have an account? Register now (free) for customized features, flight alerts, and more!